Terminal Aerodrome Forecast
Issued by NWS

Home | Current Version | Previous Version | Graphics & Text | Print | Product List | Glossary On
Versions: 1 2 3 4 5 6 7 8 9 10 11 12 13 14
000
FTUS43 KIWX 252300 RRA
TAFSBN
TAF
KSBN 252339Z 2600/2624 23014G20KT P6SM FEW050 BKN250
     FM260120 21010KT P6SM FEW050 BKN250
     FM260900 18008KT P6SM BKN020
      TEMPO 2610/2614 5SM BR BKN010
     FM261400 18010KT P6SM BKN030
     FM261700 19016G24KT P6SM BKN040
      TEMPO 2619/2623 3SM SHRA BR OVC025=

USA.gov is the U.S. government's official web portal to all federal, state and local government web resources and services.